Lake View, Mississippi
Current Conditions -  °F | °C
As of 12:54 AM on Friday 19 Dec 2014 (Local Time) from KMEM Reporting Station
Overcast Overcast  
Wind Chill: 42°   Ceiling: 3800
Heat Index: 44°   Visibility: 8mi
Dew Point: 37°   Wind: 5mph
Humidity: 76%   Direction: 50°NE
Pressure: 30.22"   Gusts: NA
Location:  34.9578°N, 90.1057°W
Report Text: KMEM 190654Z 05004KT 8SM FEW020 OVC038 07/03 A3022 RMK AO2 SLP234 T00670028 $
Loading
Personal Weather Stations






























Interactive Weather Map New forecast layout! Learn more

10-Day Weather Forecast

Advertisements
Track Severe Weather on mobile